sensor_id;sensor_type;location;lat;lon;timestamp;temperature;humidity
49132;DHT22;35149;51.196;6.204;2023-02-12T00:01:24;11.20;73.10
49132;DHT22;35149;51.196;6.204;2023-02-12T00:03:52;11.10;73.00
49132;DHT22;35149;51.196;6.204;2023-02-12T00:06:19;11.20;73.70
49132;DHT22;35149;51.196;6.204;2023-02-12T00:08:48;11.20;73.00
49132;DHT22;35149;51.196;6.204;2023-02-12T00:11:19;11.20;73.00
49132;DHT22;35149;51.196;6.204;2023-02-12T00:13:46;11.20;72.90
49132;DHT22;35149;51.196;6.204;2023-02-12T00:16:19;11.20;72.80
49132;DHT22;35149;51.196;6.204;2023-02-12T00:18:51;11.20;72.70
49132;DHT22;35149;51.196;6.204;2023-02-12T00:21:18;11.20;72.70
49132;DHT22;35149;51.196;6.204;2023-02-12T00:23:45;11.20;72.70
49132;DHT22;35149;51.196;6.204;2023-02-12T00:26:18;11.20;72.70
49132;DHT22;35149;51.196;6.204;2023-02-12T00:28:48;11.20;73.30
49132;DHT22;35149;51.196;6.204;2023-02-12T00:31:19;11.20;72.70
49132;DHT22;35149;51.196;6.204;2023-02-12T00:33:49;11.10;72.70
49132;DHT22;35149;51.196;6.204;2023-02-12T00:36:18;11.20;72.70
49132;DHT22;35149;51.196;6.204;2023-02-12T00:38:46;11.20;72.60
49132;DHT22;35149;51.196;6.204;2023-02-12T00:41:17;11.10;72.50
49132;DHT22;35149;51.196;6.204;2023-02-12T00:43:47;11.10;72.40
49132;DHT22;35149;51.196;6.204;2023-02-12T00:46:14;11.10;72.40
49132;DHT22;35149;51.196;6.204;2023-02-12T00:48:42;11.10;72.40
49132;DHT22;35149;51.196;6.204;2023-02-12T00:51:11;11.10;72.70
49132;DHT22;35149;51.196;6.204;2023-02-12T00:53:38;11.10;72.60
49132;DHT22;35149;51.196;6.204;2023-02-12T00:56:06;11.10;72.60
49132;DHT22;35149;51.196;6.204;2023-02-12T00:58:34;11.10;72.60
49132;DHT22;35149;51.196;6.204;2023-02-12T01:01:01;11.10;72.60
49132;DHT22;35149;51.196;6.204;2023-02-12T01:03:31;11.10;72.50
49132;DHT22;35149;51.196;6.204;2023-02-12T01:05:58;11.10;73.10
49132;DHT22;35149;51.196;6.204;2023-02-12T01:08:24;11.00;72.40
49132;DHT22;35149;51.196;6.204;2023-02-12T01:10:57;11.10;72.50
49132;DHT22;35149;51.196;6.204;2023-02-12T01:13:24;11.00;72.40
49132;DHT22;35149;51.196;6.204;2023-02-12T01:16:06;11.00;72.40
49132;DHT22;35149;51.196;6.204;2023-02-12T01:18:36;11.00;72.60
49132;DHT22;35149;51.196;6.204;2023-02-12T01:21:12;11.00;72.40
49132;DHT22;35149;51.196;6.204;2023-02-12T01:23:40;11.00;72.40
49132;DHT22;35149;51.196;6.204;2023-02-12T01:26:10;11.00;72.50
49132;DHT22;35149;51.196;6.204;2023-02-12T01:28:41;11.00;72.30
49132;DHT22;35149;51.196;6.204;2023-02-12T01:31:19;10.90;72.30
49132;DHT22;35149;51.196;6.204;2023-02-12T01:33:51;10.90;72.40
49132;DHT22;35149;51.196;6.204;2023-02-12T01:36:18;10.90;72.40
49132;DHT22;35149;51.196;6.204;2023-02-12T01:38:47;10.90;72.40
49132;DHT22;35149;51.196;6.204;2023-02-12T01:41:27;10.90;72.40
49132;DHT22;35149;51.196;6.204;2023-02-12T01:44:15;10.90;72.30
49132;DHT22;35149;51.196;6.204;2023-02-12T01:46:56;10.90;72.30
49132;DHT22;35149;51.196;6.204;2023-02-12T01:49:38;10.80;72.20
49132;DHT22;35149;51.196;6.204;2023-02-12T01:52:12;10.90;72.20
49132;DHT22;35149;51.196;6.204;2023-02-12T01:54:39;10.80;72.20
49132;DHT22;35149;51.196;6.204;2023-02-12T01:57:07;10.80;72.20
49132;DHT22;35149;51.196;6.204;2023-02-12T01:59:40;10.80;72.20
49132;DHT22;35149;51.196;6.204;2023-02-12T02:02:12;10.80;72.30
49132;DHT22;35149;51.196;6.204;2023-02-12T02:04:43;10.80;72.40
49132;DHT22;35149;51.196;6.204;2023-02-12T02:07:11;10.80;72.40
49132;DHT22;35149;51.196;6.204;2023-02-12T02:09:39;10.70;72.30
49132;DHT22;35149;51.196;6.204;2023-02-12T02:12:07;10.80;72.40
49132;DHT22;35149;51.196;6.204;2023-02-12T02:14:58;10.80;72.40
49132;DHT22;35149;51.196;6.204;2023-02-12T02:20:48;10.70;72.50
49132;DHT22;35149;51.196;6.204;2023-02-12T02:23:44;10.80;72.60
49132;DHT22;35149;51.196;6.204;2023-02-12T02:32:24;10.70;72.50
49132;DHT22;35149;51.196;6.204;2023-02-12T02:37:46;10.70;72.40
49132;DHT22;35149;51.196;6.204;2023-02-12T02:40:19;10.70;72.60
49132;DHT22;35149;51.196;6.204;2023-02-12T02:43:09;10.80;72.50
49132;DHT22;35149;51.196;6.204;2023-02-12T02:45:40;10.70;72.40
49132;DHT22;35149;51.196;6.204;2023-02-12T02:48:26;10.70;72.40
49132;DHT22;35149;51.196;6.204;2023-02-12T02:51:07;10.70;72.50
49132;DHT22;35149;51.196;6.204;2023-02-12T02:53:47;10.70;72.60
49132;DHT22;35149;51.196;6.204;2023-02-12T02:56:17;10.60;72.50
49132;DHT22;35149;51.196;6.204;2023-02-12T02:58:54;10.60;72.80
49132;DHT22;35149;51.196;6.204;2023-02-12T03:01:39;10.70;72.60
49132;DHT22;35149;51.196;6.204;2023-02-12T03:04:18;10.60;72.60
49132;DHT22;35149;51.196;6.204;2023-02-12T03:06:58;10.60;72.50
49132;DHT22;35149;51.196;6.204;2023-02-12T03:09:44;10.60;72.50
49132;DHT22;35149;51.196;6.204;2023-02-12T03:12:24;10.60;72.60
49132;DHT22;35149;51.196;6.204;2023-02-12T03:15:07;10.60;72.50
49132;DHT22;35149;51.196;6.204;2023-02-12T03:17:41;10.60;72.50
49132;DHT22;35149;51.196;6.204;2023-02-12T03:22:42;10.60;72.40
49132;DHT22;35149;51.196;6.204;2023-02-12T03:25:34;10.60;72.50
49132;DHT22;35149;51.196;6.204;2023-02-12T03:28:18;10.60;72.60
49132;DHT22;35149;51.196;6.204;2023-02-12T03:30:57;10.60;72.40
49132;DHT22;35149;51.196;6.204;2023-02-12T03:33:44;10.60;72.40
49132;DHT22;35149;51.196;6.204;2023-02-12T03:36:28;10.60;72.50
49132;DHT22;35149;51.196;6.204;2023-02-12T03:39:13;10.60;72.50
49132;DHT22;35149;51.196;6.204;2023-02-12T03:41:48;10.60;72.60
49132;DHT22;35149;51.196;6.204;2023-02-12T03:47:01;10.60;72.70
49132;DHT22;35149;51.196;6.204;2023-02-12T03:49:58;10.60;72.60
49132;DHT22;35149;51.196;6.204;2023-02-12T03:52:27;10.50;73.30
49132;DHT22;35149;51.196;6.204;2023-02-12T03:54:54;10.50;72.60
49132;DHT22;35149;51.196;6.204;2023-02-12T03:57:28;10.60;72.70
49132;DHT22;35149;51.196;6.204;2023-02-12T04:00:17;10.60;72.70
49132;DHT22;35149;51.196;6.204;2023-02-12T04:02:46;10.60;72.80
49132;DHT22;35149;51.196;6.204;2023-02-12T04:05:24;10.60;72.60
49132;DHT22;35149;51.196;6.204;2023-02-12T04:07:56;10.60;72.70
49132;DHT22;35149;51.196;6.204;2023-02-12T04:10:34;10.60;72.60
49132;DHT22;35149;51.196;6.204;2023-02-12T04:19:34;10.60;72.50
49132;DHT22;35149;51.196;6.204;2023-02-12T04:28:08;10.60;72.70
49132;DHT22;35149;51.196;6.204;2023-02-12T04:30:44;10.60;72.60
49132;DHT22;35149;51.196;6.204;2023-02-12T04:33:17;10.60;72.50
49132;DHT22;35149;51.196;6.204;2023-02-12T04:35:52;10.60;72.50
49132;DHT22;35149;51.196;6.204;2023-02-12T04:38:31;10.60;72.60
49132;DHT22;35149;51.196;6.204;2023-02-12T04:40:59;10.60;72.60
49132;DHT22;35149;51.196;6.204;2023-02-12T04:43:31;10.60;72.60
49132;DHT22;35149;51.196;6.204;2023-02-12T04:46:06;10.60;72.70
49132;DHT22;35149;51.196;6.204;2023-02-12T04:48:35;10.50;72.60
49132;DHT22;35149;51.196;6.204;2023-02-12T04:51:02;10.50;72.60
49132;DHT22;35149;51.196;6.204;2023-02-12T04:53:29;10.50;72.50
49132;DHT22;35149;51.196;6.204;2023-02-12T04:55:56;10.50;72.60
49132;DHT22;35149;51.196;6.204;2023-02-12T04:58:23;10.50;72.50
49132;DHT22;35149;51.196;6.204;2023-02-12T05:00:49;10.50;72.60
49132;DHT22;35149;51.196;6.204;2023-02-12T05:03:16;10.50;72.60
49132;DHT22;35149;51.196;6.204;2023-02-12T05:05:43;10.50;72.60
49132;DHT22;35149;51.196;6.204;2023-02-12T05:08:11;10.50;72.70
49132;DHT22;35149;51.196;6.204;2023-02-12T05:10:40;10.50;72.70
49132;DHT22;35149;51.196;6.204;2023-02-12T05:13:07;10.50;72.70
49132;DHT22;35149;51.196;6.204;2023-02-12T05:15:34;10.50;72.70
49132;DHT22;35149;51.196;6.204;2023-02-12T05:18:03;10.50;72.70
49132;DHT22;35149;51.196;6.204;2023-02-12T05:20:29;10.50;72.70
49132;DHT22;35149;51.196;6.204;2023-02-12T05:22:58;10.50;72.70
49132;DHT22;35149;51.196;6.204;2023-02-12T05:25:25;10.50;72.80
49132;DHT22;35149;51.196;6.204;2023-02-12T05:27:52;10.50;72.70
49132;DHT22;35149;51.196;6.204;2023-02-12T05:30:18;10.50;72.70
49132;DHT22;35149;51.196;6.204;2023-02-12T05:32:45;10.50;72.60
49132;DHT22;35149;51.196;6.204;2023-02-12T05:35:11;10.50;72.60
49132;DHT22;35149;51.196;6.204;2023-02-12T05:37:38;10.50;72.60
49132;DHT22;35149;51.196;6.204;2023-02-12T05:40:06;10.50;72.60
49132;DHT22;35149;51.196;6.204;2023-02-12T05:42:34;10.50;72.60
49132;DHT22;35149;51.196;6.204;2023-02-12T05:45:03;10.50;72.60
49132;DHT22;35149;51.196;6.204;2023-02-12T05:47:30;10.50;72.50
49132;DHT22;35149;51.196;6.204;2023-02-12T05:49:56;10.50;72.60
49132;DHT22;35149;51.196;6.204;2023-02-12T05:52:26;10.50;72.60
49132;DHT22;35149;51.196;6.204;2023-02-12T05:54:52;10.50;72.70
49132;DHT22;35149;51.196;6.204;2023-02-12T05:57:19;10.50;72.70
49132;DHT22;35149;51.196;6.204;2023-02-12T05:59:45;10.50;72.70
49132;DHT22;35149;51.196;6.204;2023-02-12T06:02:14;10.50;72.80
49132;DHT22;35149;51.196;6.204;2023-02-12T06:04:41;10.50;72.80
49132;DHT22;35149;51.196;6.204;2023-02-12T06:07:09;10.50;72.80
49132;DHT22;35149;51.196;6.204;2023-02-12T06:09:36;10.50;72.80
49132;DHT22;35149;51.196;6.204;2023-02-12T06:12:03;10.50;72.80
49132;DHT22;35149;51.196;6.204;2023-02-12T06:14:32;10.50;72.80
49132;DHT22;35149;51.196;6.204;2023-02-12T06:16:59;10.50;72.80
49132;DHT22;35149;51.196;6.204;2023-02-12T06:19:27;10.50;72.80
49132;DHT22;35149;51.196;6.204;2023-02-12T06:21:54;10.50;72.80
49132;DHT22;35149;51.196;6.204;2023-02-12T06:24:22;10.50;72.70
49132;DHT22;35149;51.196;6.204;2023-02-12T06:26:49;10.50;72.80
49132;DHT22;35149;51.196;6.204;2023-02-12T06:29:17;10.50;72.70
49132;DHT22;35149;51.196;6.204;2023-02-12T06:31:44;10.50;72.70
49132;DHT22;35149;51.196;6.204;2023-02-12T06:34:14;10.50;72.70
49132;DHT22;35149;51.196;6.204;2023-02-12T06:36:49;10.40;72.60
49132;DHT22;35149;51.196;6.204;2023-02-12T06:39:16;10.50;72.60
49132;DHT22;35149;51.196;6.204;2023-02-12T06:41:45;10.40;72.50
49132;DHT22;35149;51.196;6.204;2023-02-12T06:44:13;10.40;72.50
49132;DHT22;35149;51.196;6.204;2023-02-12T06:46:42;10.40;72.50
49132;DHT22;35149;51.196;6.204;2023-02-12T06:49:12;10.50;72.60
49132;DHT22;35149;51.196;6.204;2023-02-12T06:51:39;10.40;72.50
49132;DHT22;35149;51.196;6.204;2023-02-12T06:54:14;10.40;72.50
49132;DHT22;35149;51.196;6.204;2023-02-12T06:56:41;10.40;72.70
49132;DHT22;35149;51.196;6.204;2023-02-12T06:59:12;10.40;72.70
49132;DHT22;35149;51.196;6.204;2023-02-12T07:01:43;10.40;72.80
49132;DHT22;35149;51.196;6.204;2023-02-12T07:04:10;10.40;72.90
49132;DHT22;35149;51.196;6.204;2023-02-12T07:06:37;10.40;72.90
49132;DHT22;35149;51.196;6.204;2023-02-12T07:09:08;10.40;72.90
49132;DHT22;35149;51.196;6.204;2023-02-12T07:11:36;10.40;72.90
49132;DHT22;35149;51.196;6.204;2023-02-12T07:14:15;10.50;73.00
49132;DHT22;35149;51.196;6.204;2023-02-12T07:16:42;10.40;73.00
49132;DHT22;35149;51.196;6.204;2023-02-12T07:19:12;10.40;73.00
49132;DHT22;35149;51.196;6.204;2023-02-12T07:21:39;10.40;73.00
49132;DHT22;35149;51.196;6.204;2023-02-12T07:24:13;10.50;73.00
49132;DHT22;35149;51.196;6.204;2023-02-12T07:26:40;10.50;73.00
49132;DHT22;35149;51.196;6.204;2023-02-12T07:29:07;10.50;73.00
49132;DHT22;35149;51.196;6.204;2023-02-12T07:31:38;10.50;73.00
49132;DHT22;35149;51.196;6.204;2023-02-12T07:34:10;10.50;73.10
49132;DHT22;35149;51.196;6.204;2023-02-12T07:36:36;10.50;73.00
49132;DHT22;35149;51.196;6.204;2023-02-12T07:39:04;10.50;73.10
49132;DHT22;35149;51.196;6.204;2023-02-12T07:41:34;10.60;73.10
49132;DHT22;35149;51.196;6.204;2023-02-12T07:44:04;10.70;73.20
49132;DHT22;35149;51.196;6.204;2023-02-12T07:46:34;10.60;73.20
49132;DHT22;35149;51.196;6.204;2023-02-12T07:49:04;10.60;73.20
49132;DHT22;35149;51.196;6.204;2023-02-12T07:51:35;10.60;73.20
49132;DHT22;35149;51.196;6.204;2023-02-12T07:54:02;10.60;73.20
49132;DHT22;35149;51.196;6.204;2023-02-12T07:56:33;10.60;73.20
49132;DHT22;35149;51.196;6.204;2023-02-12T07:59:09;10.70;73.30
49132;DHT22;35149;51.196;6.204;2023-02-12T08:01:39;10.70;73.90
49132;DHT22;35149;51.196;6.204;2023-02-12T08:04:14;10.80;73.20
49132;DHT22;35149;51.196;6.204;2023-02-12T08:06:43;10.80;73.20
49132;DHT22;35149;51.196;6.204;2023-02-12T08:09:12;10.80;73.10
49132;DHT22;35149;51.196;6.204;2023-02-12T08:11:42;10.80;73.10
49132;DHT22;35149;51.196;6.204;2023-02-12T08:14:15;10.90;73.20
49132;DHT22;35149;51.196;6.204;2023-02-12T08:16:43;10.90;73.10
49132;DHT22;35149;51.196;6.204;2023-02-12T08:19:11;10.90;73.10
49132;DHT22;35149;51.196;6.204;2023-02-12T08:21:50;11.00;73.10
49132;DHT22;35149;51.196;6.204;2023-02-12T08:24:23;11.00;73.10
49132;DHT22;35149;51.196;6.204;2023-02-12T08:26:50;11.00;73.00
49132;DHT22;35149;51.196;6.204;2023-02-12T08:29:21;11.10;73.00
49132;DHT22;35149;51.196;6.204;2023-02-12T08:31:53;11.10;73.00
49132;DHT22;35149;51.196;6.204;2023-02-12T08:34:22;11.20;73.00
49132;DHT22;35149;51.196;6.204;2023-02-12T08:36:50;11.20;72.80
49132;DHT22;35149;51.196;6.204;2023-02-12T08:39:20;11.30;73.40
49132;DHT22;35149;51.196;6.204;2023-02-12T08:41:47;11.30;72.60
49132;DHT22;35149;51.196;6.204;2023-02-12T08:44:15;11.30;72.50
49132;DHT22;35149;51.196;6.204;2023-02-12T08:46:44;11.40;72.50
49132;DHT22;35149;51.196;6.204;2023-02-12T08:49:20;11.40;72.50
49132;DHT22;35149;51.196;6.204;2023-02-12T08:51:49;11.40;72.50
49132;DHT22;35149;51.196;6.204;2023-02-12T08:54:18;11.50;72.40
49132;DHT22;35149;51.196;6.204;2023-02-12T08:56:45;11.50;72.30
49132;DHT22;35149;51.196;6.204;2023-02-12T08:59:13;11.60;72.30
49132;DHT22;35149;51.196;6.204;2023-02-12T09:01:40;11.60;72.20
49132;DHT22;35149;51.196;6.204;2023-02-12T09:04:16;11.60;72.00
49132;DHT22;35149;51.196;6.204;2023-02-12T09:06:44;11.60;71.90
49132;DHT22;35149;51.196;6.204;2023-02-12T09:09:12;11.70;71.90
49132;DHT22;35149;51.196;6.204;2023-02-12T09:11:39;11.70;71.90
49132;DHT22;35149;51.196;6.204;2023-02-12T09:14:09;11.70;71.80
49132;DHT22;35149;51.196;6.204;2023-02-12T09:16:36;11.80;71.80
49132;DHT22;35149;51.196;6.204;2023-02-12T09:19:03;11.80;71.80
49132;DHT22;35149;51.196;6.204;2023-02-12T09:21:30;11.80;71.80
49132;DHT22;35149;51.196;6.204;2023-02-12T09:23:57;11.80;71.70
49132;DHT22;35149;51.196;6.204;2023-02-12T09:26:24;11.90;71.80
49132;DHT22;35149;51.196;6.204;2023-02-12T09:28:52;11.90;71.80
49132;DHT22;35149;51.196;6.204;2023-02-12T09:31:27;12.00;71.60
49132;DHT22;35149;51.196;6.204;2023-02-12T09:34:01;12.00;71.40
49132;DHT22;35149;51.196;6.204;2023-02-12T09:36:28;12.10;71.40
49132;DHT22;35149;51.196;6.204;2023-02-12T09:38:58;12.10;71.40
49132;DHT22;35149;51.196;6.204;2023-02-12T09:44:14;12.20;71.10
49132;DHT22;35149;51.196;6.204;2023-02-12T09:46:54;12.20;71.10
49132;DHT22;35149;51.196;6.204;2023-02-12T09:50:10;12.20;71.00
49132;DHT22;35149;51.196;6.204;2023-02-12T09:52:40;12.20;70.70
49132;DHT22;35149;51.196;6.204;2023-02-12T09:55:12;12.30;70.90
49132;DHT22;35149;51.196;6.204;2023-02-12T09:57:41;12.30;70.80
49132;DHT22;35149;51.196;6.204;2023-02-12T10:00:18;12.40;70.80
49132;DHT22;35149;51.196;6.204;2023-02-12T10:02:50;12.40;70.70
49132;DHT22;35149;51.196;6.204;2023-02-12T10:05:22;12.40;70.70
49132;DHT22;35149;51.196;6.204;2023-02-12T10:13:53;12.60;70.00
49132;DHT22;35149;51.196;6.204;2023-02-12T10:16:31;12.70;69.70
49132;DHT22;35149;51.196;6.204;2023-02-12T10:19:07;12.70;69.60
49132;DHT22;35149;51.196;6.204;2023-02-12T10:22:17;12.70;69.30
49132;DHT22;35149;51.196;6.204;2023-02-12T10:27:37;12.80;68.50
49132;DHT22;35149;51.196;6.204;2023-02-12T10:30:26;12.80;68.50
49132;DHT22;35149;51.196;6.204;2023-02-12T10:33:03;12.90;68.90
49132;DHT22;35149;51.196;6.204;2023-02-12T10:35:32;12.90;68.30
49132;DHT22;35149;51.196;6.204;2023-02-12T10:38:05;12.90;68.50
49132;DHT22;35149;51.196;6.204;2023-02-12T10:40:34;13.00;68.30
49132;DHT22;35149;51.196;6.204;2023-02-12T10:43:03;13.00;68.40
49132;DHT22;35149;51.196;6.204;2023-02-12T10:45:33;13.00;68.20
49132;DHT22;35149;51.196;6.204;2023-02-12T10:48:08;13.10;68.00
49132;DHT22;35149;51.196;6.204;2023-02-12T10:50:44;13.10;67.70
49132;DHT22;35149;51.196;6.204;2023-02-12T10:53:19;13.10;67.70
49132;DHT22;35149;51.196;6.204;2023-02-12T10:55:46;13.20;67.60
49132;DHT22;35149;51.196;6.204;2023-02-12T10:58:21;13.20;67.60
49132;DHT22;35149;51.196;6.204;2023-02-12T11:00:59;13.20;67.30
49132;DHT22;35149;51.196;6.204;2023-02-12T11:03:31;13.30;67.20
49132;DHT22;35149;51.196;6.204;2023-02-12T11:06:18;13.30;67.30
49132;DHT22;35149;51.196;6.204;2023-02-12T11:08:45;13.30;67.20
49132;DHT22;35149;51.196;6.204;2023-02-12T11:11:13;13.30;67.50
49132;DHT22;35149;51.196;6.204;2023-02-12T11:14:19;13.30;67.60
49132;DHT22;35149;51.196;6.204;2023-02-12T11:16:45;13.30;67.30
49132;DHT22;35149;51.196;6.204;2023-02-12T11:19:26;13.30;67.20
49132;DHT22;35149;51.196;6.204;2023-02-12T11:22:11;13.30;67.00
49132;DHT22;35149;51.196;6.204;2023-02-12T11:24:45;13.40;66.90
49132;DHT22;35149;51.196;6.204;2023-02-12T11:27:19;13.40;67.20
49132;DHT22;35149;51.196;6.204;2023-02-12T11:32:36;13.50;66.70
49132;DHT22;35149;51.196;6.204;2023-02-12T11:37:32;13.50;66.80
49132;DHT22;35149;51.196;6.204;2023-02-12T11:40:05;13.50;66.80
49132;DHT22;35149;51.196;6.204;2023-02-12T11:42:34;13.60;67.00
49132;DHT22;35149;51.196;6.204;2023-02-12T11:45:03;13.60;66.90
49132;DHT22;35149;51.196;6.204;2023-02-12T11:47:33;13.60;66.80
49132;DHT22;35149;51.196;6.204;2023-02-12T11:52:34;13.70;66.50
49132;DHT22;35149;51.196;6.204;2023-02-12T11:55:05;13.70;66.20
49132;DHT22;35149;51.196;6.204;2023-02-12T11:57:50;13.80;66.20
49132;DHT22;35149;51.196;6.204;2023-02-12T12:09:10;13.80;65.70
49132;DHT22;35149;51.196;6.204;2023-02-12T12:14:54;13.90;65.60
49132;DHT22;35149;51.196;6.204;2023-02-12T12:20:42;14.00;65.40
49132;DHT22;35149;51.196;6.204;2023-02-12T12:23:17;14.00;65.20
49132;DHT22;35149;51.196;6.204;2023-02-12T12:25:48;14.00;64.90
49132;DHT22;35149;51.196;6.204;2023-02-12T12:28:44;14.00;64.90
49132;DHT22;35149;51.196;6.204;2023-02-12T12:31:19;14.10;64.60
49132;DHT22;35149;51.196;6.204;2023-02-12T12:33:50;14.10;64.80
49132;DHT22;35149;51.196;6.204;2023-02-12T12:50:18;14.30;64.20
49132;DHT22;35149;51.196;6.204;2023-02-12T12:52:56;14.30;63.80
49132;DHT22;35149;51.196;6.204;2023-02-12T12:55:47;14.30;64.20
49132;DHT22;35149;51.196;6.204;2023-02-12T12:58:47;14.30;63.70
49132;DHT22;35149;51.196;6.204;2023-02-12T13:04:31;14.40;63.40
49132;DHT22;35149;51.196;6.204;2023-02-12T13:08:00;14.40;63.50
49132;DHT22;35149;51.196;6.204;2023-02-12T13:10:23;14.40;63.30
49132;DHT22;35149;51.196;6.204;2023-02-12T13:15:54;14.40;63.40
49132;DHT22;35149;51.196;6.204;2023-02-12T13:18:40;14.50;63.30
49132;DHT22;35149;51.196;6.204;2023-02-12T13:24:20;14.40;62.60
49132;DHT22;35149;51.196;6.204;2023-02-12T13:27:06;14.30;62.50
49132;DHT22;35149;51.196;6.204;2023-02-12T13:29:40;14.30;62.60
49132;DHT22;35149;51.196;6.204;2023-02-12T13:32:31;14.30;62.60
49132;DHT22;35149;51.196;6.204;2023-02-12T13:35:00;14.30;62.00
49132;DHT22;35149;51.196;6.204;2023-02-12T13:37:36;14.30;62.70
49132;DHT22;35149;51.196;6.204;2023-02-12T13:40:07;14.20;62.70
49132;DHT22;35149;51.196;6.204;2023-02-12T13:51:11;14.20;62.00
49132;DHT22;35149;51.196;6.204;2023-02-12T13:53:56;14.20;61.90
49132;DHT22;35149;51.196;6.204;2023-02-12T13:58:58;14.20;62.00
49132;DHT22;35149;51.196;6.204;2023-02-12T14:01:46;14.10;62.40
49132;DHT22;35149;51.196;6.204;2023-02-12T14:04:24;14.10;61.40
49132;DHT22;35149;51.196;6.204;2023-02-12T14:07:09;14.10;61.70
49132;DHT22;35149;51.196;6.204;2023-02-12T14:09:41;14.10;61.60
49132;DHT22;35149;51.196;6.204;2023-02-12T14:12:25;14.10;62.10
49132;DHT22;35149;51.196;6.204;2023-02-12T14:15:27;14.10;61.50
49132;DHT22;35149;51.196;6.204;2023-02-12T14:20:32;14.10;62.50
49132;DHT22;35149;51.196;6.204;2023-02-12T14:25:36;14.10;62.00
49132;DHT22;35149;51.196;6.204;2023-02-12T14:28:19;14.10;61.60
49132;DHT22;35149;51.196;6.204;2023-02-12T14:33:51;14.10;61.30
49132;DHT22;35149;51.196;6.204;2023-02-12T14:41:52;14.00;61.40
49132;DHT22;35149;51.196;6.204;2023-02-12T14:46:49;14.00;61.70
49132;DHT22;35149;51.196;6.204;2023-02-12T14:57:34;14.00;61.50
49132;DHT22;35149;51.196;6.204;2023-02-12T15:05:37;13.90;61.50
49132;DHT22;35149;51.196;6.204;2023-02-12T15:08:25;13.90;61.80
49132;DHT22;35149;51.196;6.204;2023-02-12T15:19:30;13.80;61.70
49132;DHT22;35149;51.196;6.204;2023-02-12T15:21:59;13.70;61.90
49132;DHT22;35149;51.196;6.204;2023-02-12T15:24:29;13.70;62.10
49132;DHT22;35149;51.196;6.204;2023-02-12T15:26:57;13.70;62.10
49132;DHT22;35149;51.196;6.204;2023-02-12T15:29:30;13.70;62.10
49132;DHT22;35149;51.196;6.204;2023-02-12T15:32:03;13.60;62.10
49132;DHT22;35149;51.196;6.204;2023-02-12T15:34:33;13.60;62.30
49132;DHT22;35149;51.196;6.204;2023-02-12T15:37:03;13.60;62.20
49132;DHT22;35149;51.196;6.204;2023-02-12T15:39:40;13.60;62.30
49132;DHT22;35149;51.196;6.204;2023-02-12T15:42:30;13.60;62.00
49132;DHT22;35149;51.196;6.204;2023-02-12T15:45:16;13.60;62.00
49132;DHT22;35149;51.196;6.204;2023-02-12T15:47:44;13.60;61.90
49132;DHT22;35149;51.196;6.204;2023-02-12T15:50:19;13.50;62.20
49132;DHT22;35149;51.196;6.204;2023-02-12T15:52:49;13.50;62.20
49132;DHT22;35149;51.196;6.204;2023-02-12T15:55:22;13.50;62.30
49132;DHT22;35149;51.196;6.204;2023-02-12T15:57:58;13.50;62.30
49132;DHT22;35149;51.196;6.204;2023-02-12T16:00:34;13.50;62.20
49132;DHT22;35149;51.196;6.204;2023-02-12T16:03:05;13.40;62.50
49132;DHT22;35149;51.196;6.204;2023-02-12T16:05:32;13.40;62.60
49132;DHT22;35149;51.196;6.204;2023-02-12T16:08:01;13.40;62.70
49132;DHT22;35149;51.196;6.204;2023-02-12T16:10:27;13.40;62.70
49132;DHT22;35149;51.196;6.204;2023-02-12T16:12:54;13.30;62.70
49132;DHT22;35149;51.196;6.204;2023-02-12T16:15:31;13.30;62.70
49132;DHT22;35149;51.196;6.204;2023-02-12T16:18:00;13.30;62.70
49132;DHT22;35149;51.196;6.204;2023-02-12T16:20:30;13.30;62.90
49132;DHT22;35149;51.196;6.204;2023-02-12T16:22:57;13.30;63.00
49132;DHT22;35149;51.196;6.204;2023-02-12T16:25:29;13.20;63.10
49132;DHT22;35149;51.196;6.204;2023-02-12T16:28:14;13.20;63.10
49132;DHT22;35149;51.196;6.204;2023-02-12T16:30:46;13.20;63.10
49132;DHT22;35149;51.196;6.204;2023-02-12T16:33:40;13.20;63.20
49132;DHT22;35149;51.196;6.204;2023-02-12T16:36:33;13.20;63.00
49132;DHT22;35149;51.196;6.204;2023-02-12T16:39:04;13.10;63.30
49132;DHT22;35149;51.196;6.204;2023-02-12T16:41:55;13.10;63.40
49132;DHT22;35149;51.196;6.204;2023-02-12T16:44:28;13.10;63.30
49132;DHT22;35149;51.196;6.204;2023-02-12T16:47:00;13.10;63.60
49132;DHT22;35149;51.196;6.204;2023-02-12T16:49:27;13.00;63.80
49132;DHT22;35149;51.196;6.204;2023-02-12T16:52:18;13.00;63.90
49132;DHT22;35149;51.196;6.204;2023-02-12T16:54:45;13.00;63.80
49132;DHT22;35149;51.196;6.204;2023-02-12T16:57:14;12.90;64.00
49132;DHT22;35149;51.196;6.204;2023-02-12T16:59:41;12.90;64.10
49132;DHT22;35149;51.196;6.204;2023-02-12T17:02:13;12.90;64.30
49132;DHT22;35149;51.196;6.204;2023-02-12T17:04:42;12.90;64.40
49132;DHT22;35149;51.196;6.204;2023-02-12T17:07:23;12.90;65.20
49132;DHT22;35149;51.196;6.204;2023-02-12T17:09:50;12.80;64.50
49132;DHT22;35149;51.196;6.204;2023-02-12T17:12:16;12.80;64.50
49132;DHT22;35149;51.196;6.204;2023-02-12T17:14:43;12.80;64.70
49132;DHT22;35149;51.196;6.204;2023-02-12T17:17:12;12.80;64.80
49132;DHT22;35149;51.196;6.204;2023-02-12T17:19:39;12.70;64.80
49132;DHT22;35149;51.196;6.204;2023-02-12T17:22:13;12.70;64.80
49132;DHT22;35149;51.196;6.204;2023-02-12T17:24:45;12.70;64.90
49132;DHT22;35149;51.196;6.204;2023-02-12T17:27:19;12.70;64.90
49132;DHT22;35149;51.196;6.204;2023-02-12T17:29:46;12.60;64.80
49132;DHT22;35149;51.196;6.204;2023-02-12T17:32:12;12.60;64.90
49132;DHT22;35149;51.196;6.204;2023-02-12T17:34:39;12.60;64.90
49132;DHT22;35149;51.196;6.204;2023-02-12T17:37:15;12.60;64.90
49132;DHT22;35149;51.196;6.204;2023-02-12T17:39:45;12.60;64.80
49132;DHT22;35149;51.196;6.204;2023-02-12T17:42:14;12.60;64.80
49132;DHT22;35149;51.196;6.204;2023-02-12T17:44:41;12.50;64.70
49132;DHT22;35149;51.196;6.204;2023-02-12T17:47:12;12.50;64.80
49132;DHT22;35149;51.196;6.204;2023-02-12T17:49:39;12.50;64.90
49132;DHT22;35149;51.196;6.204;2023-02-12T17:52:08;12.50;64.80
49132;DHT22;35149;51.196;6.204;2023-02-12T17:54:35;12.50;64.80
49132;DHT22;35149;51.196;6.204;2023-02-12T17:57:04;12.50;65.00
49132;DHT22;35149;51.196;6.204;2023-02-12T17:59:32;12.50;65.00
49132;DHT22;35149;51.196;6.204;2023-02-12T18:02:00;12.50;65.00
49132;DHT22;35149;51.196;6.204;2023-02-12T18:04:29;12.50;65.10
49132;DHT22;35149;51.196;6.204;2023-02-12T18:06:58;12.40;65.10
49132;DHT22;35149;51.196;6.204;2023-02-12T18:09:30;12.40;65.20
49132;DHT22;35149;51.196;6.204;2023-02-12T18:12:00;12.40;65.10
49132;DHT22;35149;51.196;6.204;2023-02-12T18:14:27;12.40;65.20
49132;DHT22;35149;51.196;6.204;2023-02-12T18:16:54;12.40;65.30
49132;DHT22;35149;51.196;6.204;2023-02-12T18:19:20;12.40;65.40
49132;DHT22;35149;51.196;6.204;2023-02-12T18:21:47;12.40;65.50